Time;durP1;ratioP1;P1;durP2;ratioP2;P2;SDS_P1;SDS_P2;PMS_P1;PMS_P2;Temp;Humidity;BMP_temperature;BMP_pressure;BME280_temperature;BME280_humidity;BME280_pressure;Samples;Min_cycle;Max_cycle;Signal;HPM_P1;HPM_P2
2023/04/22 00:01:18;;;;;;;;;44.00;36.50;;;;;12.98;39.76;99036.41;5092769;28;8878;-80
2023/04/22 00:03:49;;;;;;;;;47.00;38.75;;;;;12.92;39.90;99035.72;5092471;28;8851;-80
2023/04/22 00:06:18;;;;;;;;;40.50;36.00;;;;;12.97;39.47;99032.03;5090976;28;9585;-79
2023/04/22 00:08:47;;;;;;;;;39.25;32.50;;;;;12.95;39.76;99024.19;5090053;28;8860;-78
2023/04/22 00:11:17;;;;;;;;;47.25;38.00;;;;;12.93;39.79;99026.88;5089785;28;8998;-79
2023/04/22 00:13:45;;;;;;;;;42.25;38.00;;;;;12.89;40.09;99035.81;5090111;28;8836;-79
2023/04/22 00:16:15;;;;;;;;;39.50;36.00;;;;;12.90;40.08;99023.50;5090385;28;8840;-79
2023/04/22 00:18:43;;;;;;;;;42.00;37.50;;;;;12.90;40.12;99023.50;5088627;28;8863;-80
2023/04/22 00:21:14;;;;;;;;;37.75;35.25;;;;;12.88;40.17;99028.84;5089927;28;8839;-79
2023/04/22 00:23:44;;;;;;;;;37.00;35.00;;;;;12.87;39.84;99024.47;5070324;28;8867;-80
2023/04/22 00:26:13;;;;;;;;;39.25;35.50;;;;;12.87;39.96;99023.63;5089508;28;8891;-80
2023/04/22 00:28:42;;;;;;;;;24.50;22.50;;;;;12.84;40.26;99021.06;5089779;28;9010;-79
2023/04/22 00:31:11;;;;;;;;;36.25;33.25;;;;;12.84;40.16;99027.22;5088161;28;8928;-79
2023/04/22 00:33:40;;;;;;;;;41.75;37.25;;;;;12.83;39.99;99030.75;5088906;28;8889;-80
2023/04/22 00:36:09;;;;;;;;;41.75;35.25;;;;;12.83;40.32;99025.50;5038271;28;8832;-78
2023/04/22 00:38:39;;;;;;;;;45.25;37.25;;;;;12.82;40.40;99025.53;5091309;28;8964;-78
2023/04/22 00:41:09;;;;;;;;;41.50;37.00;;;;;12.80;40.18;99019.47;5072856;28;8856;-80
2023/04/22 00:43:38;;;;;;;;;38.50;34.50;;;;;12.77;40.08;99017.81;5071831;28;9007;-80
2023/04/22 00:46:08;;;;;;;;;21.50;21.25;;;;;12.78;40.45;99024.78;5088902;28;9017;-80
2023/04/22 00:48:38;;;;;;;;;38.25;35.00;;;;;12.80;40.25;99027.38;5087959;28;10632;-79
2023/04/22 00:51:07;;;;;;;;;38.25;34.00;;;;;12.79;40.32;99023.00;5088173;28;8852;-79
2023/04/22 00:53:36;;;;;;;;;39.25;34.75;;;;;12.80;40.24;99020.31;5054080;28;8856;-79
2023/04/22 00:56:07;;;;;;;;;35.75;33.00;;;;;12.80;40.06;99022.09;5090096;28;8862;-81
2023/04/22 00:58:36;;;;;;;;;30.25;29.25;;;;;12.75;40.36;99019.66;5105275;28;8863;-79
2023/04/22 01:01:05;;;;;;;;;37.75;33.50;;;;;12.78;40.19;99029.22;5072398;28;8851;-80
2023/04/22 01:03:38;;;;;;;;;38.50;35.50;;;;;12.81;40.43;99037.03;5098110;28;8864;-79
2023/04/22 01:06:08;;;;;;;;;42.25;36.75;;;;;12.76;40.09;99023.16;5099546;28;8856;-80
2023/04/22 01:08:36;;;;;;;;;36.00;34.25;;;;;12.78;40.21;99032.72;5089779;28;9795;-78
2023/04/22 01:11:07;;;;;;;;;36.75;33.75;;;;;12.77;40.65;99028.38;5087852;28;8847;-79
2023/04/22 01:13:37;;;;;;;;;39.00;34.50;;;;;12.80;40.54;99036.16;5087020;28;8852;-79
2023/04/22 01:16:08;;;;;;;;;41.25;34.75;;;;;12.79;40.30;99034.44;5088769;28;8843;-79
2023/04/22 01:18:37;;;;;;;;;38.75;34.25;;;;;12.81;40.53;99037.03;5053700;28;9711;-80
2023/04/22 01:21:06;;;;;;;;;38.00;35.00;;;;;12.86;40.44;99043.88;5088313;28;9746;-78
2023/04/22 01:23:38;;;;;;;;;35.25;33.50;;;;;12.90;40.16;99041.94;5088570;28;8986;-79
2023/04/22 01:26:06;;;;;;;;;39.25;35.25;;;;;12.95;40.22;99047.06;5088653;28;8876;-79
2023/04/22 01:28:35;;;;;;;;;43.00;36.75;;;;;12.95;40.33;99041.78;5103698;28;8868;-79
2023/04/22 01:31:05;;;;;;;;;46.50;37.75;;;;;12.98;40.56;99036.41;5065618;28;8838;-79
2023/04/22 01:33:34;;;;;;;;;41.75;35.50;;;;;12.99;40.16;99041.59;5084139;28;8836;-79
2023/04/22 01:36:03;;;;;;;;;41.75;37.50;;;;;13.01;40.06;99037.13;5088161;28;8894;-79
2023/04/22 01:38:33;;;;;;;;;35.50;33.00;;;;;13.06;40.26;99039.59;5087145;28;8936;-79
2023/04/22 01:41:03;;;;;;;;;43.25;38.00;;;;;13.10;40.12;99043.81;5088362;28;8844;-79
2023/04/22 01:43:33;;;;;;;;;45.75;38.50;;;;;13.09;40.11;99036.81;5069203;28;8860;-78
2023/04/22 01:46:02;;;;;;;;;41.75;37.00;;;;;13.09;40.19;99042.09;5088143;28;8863;-79
2023/04/22 01:48:31;;;;;;;;;43.50;36.75;;;;;13.12;39.98;99040.19;5053020;28;8914;-79
2023/04/22 01:51:00;;;;;;;;;41.00;34.75;;;;;13.09;40.40;99040.34;5087983;28;8971;-79
2023/04/22 01:53:29;;;;;;;;;48.25;39.00;;;;;13.15;40.31;99043.63;5088190;28;8859;-79
2023/04/22 01:55:59;;;;;;;;;41.00;36.25;;;;;13.16;40.08;99040.94;5086607;28;8881;-79
2023/04/22 01:58:30;;;;;;;;;45.00;39.00;;;;;13.20;40.26;99036.41;5086424;28;8886;-80
2023/04/22 02:00:59;;;;;;;;;39.50;36.00;;;;;13.21;40.39;99036.34;5086596;28;8860;-78
2023/04/22 02:03:28;;;;;;;;;44.75;37.75;;;;;13.22;40.24;99043.34;5086396;28;8848;-78
2023/04/22 02:05:57;;;;;;;;;43.25;36.00;;;;;13.24;40.27;99038.88;5087569;28;8855;-78
2023/04/22 02:08:26;;;;;;;;;39.75;36.00;;;;;13.28;40.44;99036.97;5087669;28;8878;-79
2023/04/22 02:10:55;;;;;;;;;42.75;35.00;;;;;13.30;40.31;99033.34;5072093;28;8866;-79
2023/04/22 02:13:24;;;;;;;;;42.25;37.75;;;;;13.29;40.00;99039.53;5048734;28;8862;-78
2023/04/22 02:15:54;;;;;;;;;39.25;36.00;;;;;13.20;40.43;99028.47;5048622;28;8870;-78
2023/04/22 02:18:22;;;;;;;;;40.50;35.50;;;;;13.16;40.48;99032.16;5032454;28;8870;-79
2023/04/22 02:20:51;;;;;;;;;41.75;36.00;;;;;13.12;40.50;99034.06;5031936;28;8870;-78
2023/04/22 02:23:20;;;;;;;;;45.75;37.75;;;;;13.01;40.81;99028.34;5032107;28;8870;-77
2023/04/22 02:25:50;;;;;;;;;44.75;38.00;;;;;13.05;40.77;99033.47;5048384;28;8866;-79
2023/04/22 02:28:20;;;;;;;;;46.25;38.00;;;;;13.04;40.81;99029.09;5016058;28;8881;-79
2023/04/22 02:30:49;;;;;;;;;40.50;36.25;;;;;13.07;40.73;99020.19;5048810;28;8846;-78
2023/04/22 02:33:19;;;;;;;;;46.75;39.75;;;;;13.08;41.20;99024.56;5032140;28;8881;-79
2023/04/22 02:35:48;;;;;;;;;45.25;38.00;;;;;13.03;40.73;99019.44;5048577;28;8878;-78
2023/04/22 02:38:19;;;;;;;;;45.00;36.50;;;;;12.99;40.86;99020.50;5048457;28;8866;-78
2023/04/22 02:40:48;;;;;;;;;43.50;36.50;;;;;12.90;41.32;99027.00;5049144;28;8861;-79
2023/04/22 02:43:16;;;;;;;;;43.00;35.25;;;;;12.81;41.40;99027.31;5048735;28;8909;-78
2023/04/22 02:45:45;;;;;;;;;50.25;40.50;;;;;12.82;41.38;99034.31;5048763;28;8858;-80
2023/04/22 02:48:14;;;;;;;;;46.25;39.00;;;;;12.78;41.43;99026.59;5032737;28;8889;-79
2023/04/22 02:50:45;;;;;;;;;41.50;36.00;;;;;12.73;41.79;99026.75;5064297;28;8927;-80
2023/04/22 02:53:14;;;;;;;;;46.00;38.75;;;;;12.69;41.58;99033.94;5092274;28;8852;-79
2023/04/22 02:55:43;;;;;;;;;42.75;36.25;;;;;12.65;41.93;99031.47;5055718;28;8855;-79
2023/04/22 02:58:11;;;;;;;;;51.00;43.00;;;;;12.64;41.81;99037.66;5089907;28;8879;-79
2023/04/22 03:00:40;;;;;;;;;47.50;38.00;;;;;12.63;42.02;99034.16;5089696;28;8847;-80
2023/04/22 03:03:09;;;;;;;;;50.25;39.25;;;;;12.64;41.97;99040.31;5090058;28;8860;-79
2023/04/22 03:05:38;;;;;;;;;43.25;37.75;;;;;12.64;42.10;99038.53;5015593;28;8842;-79
2023/04/22 03:08:09;;;;;;;;;45.75;39.00;;;;;12.62;41.84;99040.34;5031389;28;8870;-80
2023/04/22 03:10:38;;;;;;;;;52.00;41.50;;;;;12.63;42.10;99033.28;5031402;28;8862;-77
2023/04/22 03:13:09;;;;;;;;;50.25;40.25;;;;;12.62;42.21;99040.34;4998731;28;8959;-78
2023/04/22 03:15:40;;;;;;;;;79.25;64.00;;;;;12.57;42.24;99039.66;5031166;28;8935;-79
2023/04/22 03:18:09;;;;;;;;;52.00;44.25;;;;;12.56;42.51;99042.34;5048006;28;10062;-79
2023/04/22 03:20:39;;;;;;;;;51.75;42.50;;;;;12.53;42.51;99048.59;5031296;28;8968;-80
2023/04/22 03:23:10;;;;;;;;;48.50;40.50;;;;;12.50;42.66;99036.41;4997941;28;8861;-78
2023/04/22 03:25:39;;;;;;;;;49.00;41.00;;;;;12.48;42.54;99045.28;5031225;28;8854;-79
2023/04/22 03:28:08;;;;;;;;;43.50;37.25;;;;;12.46;42.40;99049.75;5047634;28;9023;-78
2023/04/22 03:30:37;;;;;;;;;42.50;37.75;;;;;12.42;42.70;99050.78;5027582;28;8867;-79
2023/04/22 03:33:06;;;;;;;;;48.75;41.25;;;;;12.37;42.65;99050.94;5027781;28;8840;-79
2023/04/22 03:35:48;;;;;;;;;42.75;38.00;;;;;12.36;42.79;99049.22;4996951;28;8888;-79
2023/04/22 03:38:19;;;;;;;;;59.25;47.00;;;;;12.32;42.74;99047.63;5011623;28;8848;-80
2023/04/22 03:40:49;;;;;;;;;51.50;42.25;;;;;12.23;43.09;99046.16;4995393;28;8844;-80
2023/04/22 03:43:31;;;;;;;;;48.50;39.25;;;;;12.24;43.14;99047.00;5049132;28;8861;-79
2023/04/22 03:46:06;;;;;;;;;42.75;38.00;;;;;12.19;43.38;99051.59;5087706;28;9609;-79
2023/04/22 03:48:39;;;;;;;;;45.25;38.00;;;;;12.23;43.30;99050.59;5070337;28;8945;-80
2023/04/22 03:51:14;;;;;;;;;42.00;37.25;;;;;12.12;43.40;99051.81;5070672;28;8972;-79
2023/04/22 03:53:44;;;;;;;;;40.00;35.50;;;;;12.06;43.69;99057.28;4988197;28;8873;-78
2023/04/22 03:56:18;;;;;;;;;52.25;43.00;;;;;12.06;43.96;99064.34;5104698;28;8873;-79
2023/04/22 03:58:47;;;;;;;;;78.00;63.50;;;;;12.05;43.79;99066.13;5053890;28;8919;-79
2023/04/22 04:01:17;;;;;;;;;66.67;52.00;;;;;12.03;44.18;99067.06;5073115;28;9695;-81
2023/04/22 04:03:50;;;;;;;;;51.75;42.00;;;;;12.00;44.17;99073.31;5088033;28;9286;-78
2023/04/22 04:06:21;;;;;;;;;49.75;42.25;;;;;11.98;43.91;99077.78;5088849;28;8897;-79
2023/04/22 04:08:51;;;;;;;;;48.25;38.75;;;;;12.01;43.81;99077.66;5037919;28;8881;-78
2023/04/22 04:11:20;;;;;;;;;46.50;40.00;;;;;12.01;44.19;99075.03;5089009;28;8835;-79
2023/04/22 04:13:49;;;;;;;;;44.50;37.00;;;;;12.04;44.05;99076.72;5088806;28;8997;-78
2023/04/22 04:16:22;;;;;;;;;39.00;35.25;;;;;12.04;44.22;99082.84;5105566;28;8840;-78
2023/04/22 04:18:58;;;;;;;;;45.25;37.50;;;;;12.05;43.92;99081.94;5088301;28;8902;-80
2023/04/22 04:21:28;;;;;;;;;41.00;36.00;;;;;12.06;44.39;99085.41;5088990;28;9660;-77
2023/04/22 04:23:58;;;;;;;;;40.75;35.00;;;;;12.08;43.86;99087.06;5073690;28;8977;-80
2023/04/22 04:26:33;;;;;;;;;48.75;40.75;;;;;12.08;44.30;99089.72;5088430;28;8843;-79
2023/04/22 04:29:09;;;;;;;;;45.50;39.50;;;;;11.75;44.75;99095.19;5088311;28;8974;-80
2023/04/22 04:31:41;;;;;;;;;40.25;37.00;;;;;11.85;44.83;99101.03;5054990;28;8894;-79
2023/04/22 04:34:10;;;;;;;;;82.00;70.50;;;;;11.88;44.59;99082.50;5105314;28;8877;-79
2023/04/22 04:36:39;;;;;;;;;56.75;44.75;;;;;11.92;44.61;99097.28;5103829;28;10279;-77
2023/04/22 04:39:17;;;;;;;;;50.00;42.75;;;;;11.97;44.88;99097.13;5091767;28;8881;-79
2023/04/22 04:41:47;;;;;;;;;44.00;38.75;;;;;12.01;44.45;99111.06;5072324;28;8871;-80
2023/04/22 04:44:17;;;;;;;;;45.25;37.50;;;;;12.06;44.30;99102.09;5088604;28;8876;-79
2023/04/22 04:46:49;;;;;;;;;49.75;40.75;;;;;12.09;44.31;99096.72;5071354;28;8875;-79
2023/04/22 04:49:19;;;;;;;;;42.50;38.00;;;;;12.13;44.63;99100.97;5104560;28;8848;-79
2023/04/22 04:51:57;;;;;;;;;45.50;37.75;;;;;12.21;44.45;99107.75;5088124;28;8843;-78
2023/04/22 04:54:29;;;;;;;;;63.25;51.25;;;;;12.26;44.45;99111.94;5070772;28;8867;-78
2023/04/22 04:57:00;;;;;;;;;49.00;40.50;;;;;12.23;44.16;99112.03;5070896;28;8856;-78
2023/04/22 04:59:30;;;;;;;;;84.00;73.00;;;;;12.28;44.19;99111.91;5087522;28;8832;-79
2023/04/22 05:01:59;;;;;;;;;58.00;47.33;;;;;12.34;44.41;99119.59;5087057;28;10590;-78
2023/04/22 05:04:32;;;;;;;;;48.50;41.25;;;;;12.38;44.08;99113.28;5037482;28;8956;-78
2023/04/22 05:07:02;;;;;;;;;47.50;39.25;;;;;12.44;43.85;99115.69;5052851;28;8868;-77
2023/04/22 05:09:36;;;;;;;;;50.50;39.50;;;;;12.52;43.75;99110.16;5085624;28;8886;-77
2023/04/22 05:12:06;;;;;;;;;38.75;36.00;;;;;12.54;43.82;99114.47;5085817;28;8833;-78
2023/04/22 05:14:35;;;;;;;;;40.50;36.25;;;;;12.61;43.49;99108.97;5068770;28;8864;-79
2023/04/22 05:17:04;;;;;;;;;41.00;37.25;;;;;12.67;43.58;99111.38;5035870;28;8873;-79
2023/04/22 05:19:33;;;;;;;;;52.25;44.00;;;;;12.70;43.62;99119.19;5085739;28;9574;-78
2023/04/22 05:22:02;;;;;;;;;81.00;67.75;;;;;12.71;43.47;99116.50;5068775;28;8981;-80
2023/04/22 05:24:32;;;;;;;;;49.00;41.00;;;;;12.75;43.28;99119.88;5085549;28;9876;-79
2023/04/22 05:27:02;;;;;;;;;49.75;41.50;;;;;12.80;43.71;99127.59;5085898;28;8865;-77
2023/04/22 05:29:32;;;;;;;;;45.00;37.50;;;;;12.84;43.31;99114.28;5102937;28;9733;-79
2023/04/22 05:32:03;;;;;;;;;49.00;40.50;;;;;12.81;43.40;99119.66;5085292;28;8865;-78
2023/04/22 05:34:33;;;;;;;;;54.50;46.50;;;;;12.61;43.95;99124.78;5093602;28;8896;-78
2023/04/22 05:37:03;;;;;;;;;49.75;42.00;;;;;12.61;43.61;99128.28;5079932;28;8857;-80
2023/04/22 05:39:34;;;;;;;;;50.75;41.25;;;;;12.65;44.03;99123.75;5052620;28;8872;-79
2023/04/22 05:42:09;;;;;;;;;40.00;36.25;;;;;12.77;44.12;99127.72;5082333;28;8889;-74
2023/04/22 05:44:38;;;;;;;;;43.50;37.50;;;;;12.88;43.53;99121.19;5049468;28;8857;-80
2023/04/22 05:47:07;;;;;;;;;48.75;39.75;;;;;12.89;43.61;99122.88;5085423;28;8843;-79
2023/04/22 05:49:36;;;;;;;;;41.00;36.00;;;;;12.85;43.85;99118.63;5084209;28;8857;-78
2023/04/22 05:52:06;;;;;;;;;44.00;37.75;;;;;12.97;43.54;99119.09;5081955;28;8932;-78
2023/04/22 05:54:47;;;;;;;;;54.00;45.75;;;;;12.98;43.48;99126.13;5073355;28;8874;-79
2023/04/22 05:57:18;;;;;;;;;54.25;45.50;;;;;13.05;43.43;99130.22;5064460;28;8910;-79
2023/04/22 05:59:46;;;;;;;;;54.00;44.25;;;;;13.10;43.50;99128.28;5048533;28;8884;-78
2023/04/22 06:02:16;;;;;;;;;52.50;42.50;;;;;13.23;43.11;99134.78;5048654;28;8829;-82
2023/04/22 06:04:45;;;;;;;;;49.00;41.00;;;;;13.29;42.86;99139.84;5051000;28;8905;-80
2023/04/22 06:07:14;;;;;;;;;49.50;41.00;;;;;13.03;43.63;99135.53;5068752;28;8989;-80
2023/04/22 06:09:43;;;;;;;;;51.00;41.50;;;;;12.95;43.66;99142.91;5052660;28;8880;-80
2023/04/22 06:12:12;;;;;;;;;44.25;37.00;;;;;12.70;44.41;99146.41;5004161;28;8835;-81
2023/04/22 06:14:43;;;;;;;;;49.50;41.75;;;;;13.03;44.18;99145.25;5071411;28;8857;-82
2023/04/22 06:17:13;;;;;;;;;45.50;38.00;;;;;13.18;43.81;99152.56;5079912;28;8839;-82
2023/04/22 06:19:43;;;;;;;;;45.00;39.50;;;;;13.28;43.24;99150.47;5091865;28;8982;-80
2023/04/22 06:22:12;;;;;;;;;48.75;40.25;;;;;13.11;43.52;99145.84;5084028;28;8860;-81
2023/04/22 06:24:41;;;;;;;;;46.00;39.25;;;;;13.21;43.45;99148.97;5080113;28;8863;-83
2023/04/22 06:27:10;;;;;;;;;49.00;40.75;;;;;12.97;44.45;99153.41;5089233;28;8848;-79
2023/04/22 06:29:39;;;;;;;;;45.50;38.50;;;;;13.36;43.49;99148.38;5089346;28;8860;-83
2023/04/22 06:32:45;;;;;;;;;44.50;38.00;;;;;13.69;42.96;99151.50;5088042;28;8874;-85
2023/04/22 06:35:14;;;;;;;;;39.25;35.50;;;;;13.69;42.04;99156.78;5070325;28;8860;-79
2023/04/22 06:37:44;;;;;;;;;48.00;40.50;;;;;13.26;43.06;99165.47;5068726;28;8861;-78
2023/04/22 06:40:14;;;;;;;;;42.75;35.50;;;;;13.55;42.90;99160.88;5051836;28;8840;-77
2023/04/22 06:43:01;;;;;;;;;48.75;40.50;;;;;13.83;41.98;99160.66;5084482;28;9785;-80
2023/04/22 06:45:53;;;;;;;;;47.00;39.00;;;;;14.08;41.64;99161.34;5045042;28;9694;-81
2023/04/22 06:48:39;;;;;;;;;48.75;40.25;;;;;13.72;42.21;99168.97;5060501;28;8870;-79
2023/04/22 06:51:27;;;;;;;;;41.50;37.00;;;;;14.16;41.55;99162.84;5045048;28;8869;-79
2023/04/22 06:53:57;;;;;;;;;45.00;37.75;;;;;14.55;40.60;99162.06;5025288;28;8876;-79
2023/04/22 06:56:26;;;;;;;;;45.75;39.25;;;;;14.82;40.12;99155.56;5026008;28;8864;-79
2023/04/22 06:58:55;;;;;;;;;46.75;40.25;;;;;14.84;39.85;99161.66;5011797;28;8890;-79
2023/04/22 07:01:25;;;;;;;;;49.25;38.00;;;;;14.66;39.59;99163.31;5028461;28;8864;-80
2023/04/22 07:03:55;;;;;;;;;47.50;37.25;;;;;14.82;38.98;99155.56;4995641;28;9634;-79
2023/04/22 07:06:26;;;;;;;;;47.00;37.50;;;;;14.93;38.68;99159.53;5028366;28;8880;-79
2023/04/22 07:08:56;;;;;;;;;38.75;35.50;;;;;15.25;38.35;99168.66;5011628;28;9804;-80
2023/04/22 07:11:26;;;;;;;;;39.75;33.75;;;;;15.49;37.89;99166.66;4991002;28;8850;-77
2023/04/22 07:14:03;;;;;;;;;39.50;35.25;;;;;15.79;37.12;99166.13;5006278;28;8861;-81
2023/04/22 07:16:32;;;;;;;;;38.50;33.75;;;;;13.80;37.61;99173.97;4992737;28;9605;-81
2023/04/22 07:19:04;;;;;;;;;41.00;33.50;;;;;13.60;37.88;99186.19;5009505;28;9021;-80
2023/04/22 07:21:33;;;;;;;;;40.00;34.00;;;;;13.67;38.22;99182.34;5009758;28;8999;-80
2023/04/22 07:24:02;;;;;;;;;44.25;36.25;;;;;13.35;37.89;99180.13;5045592;28;8877;-82
2023/04/22 07:26:33;;;;;;;;;35.00;33.25;;;;;13.01;39.04;99184.88;5070731;28;8850;-81
2023/04/22 07:29:01;;;;;;;;;44.25;38.50;;;;;13.39;38.46;99192.28;5083103;28;8856;-79
2023/04/22 07:31:30;;;;;;;;;39.25;34.50;;;;;13.73;38.03;99175.97;5090756;28;8820;-81
2023/04/22 07:34:03;;;;;;;;;41.75;35.25;;;;;14.40;37.08;99176.81;5091978;28;8855;-83
2023/04/22 07:36:38;;;;;;;;;39.00;34.00;;;;;14.90;36.63;99176.38;5091184;28;8972;-83
2023/04/22 07:39:27;;;;;;;;;38.75;33.25;;;;;15.50;36.42;99172.78;5092439;28;8957;-82
2023/04/22 07:41:57;;;;;;;;;38.50;34.75;;;;;15.87;35.67;99179.88;5049953;28;8956;-82
2023/04/22 07:44:26;;;;;;;;;36.00;33.00;;;;;16.23;35.11;99179.00;5033170;28;9646;-83
2023/04/22 07:46:55;;;;;;;;;43.25;36.00;;;;;15.27;36.93;99177.38;5033473;28;8858;-80
2023/04/22 07:49:25;;;;;;;;;39.00;33.50;;;;;14.96;37.45;99181.44;5049994;28;8885;-83
2023/04/22 07:51:55;;;;;;;;;41.50;34.00;;;;;15.58;36.92;99176.78;5037882;28;8868;-79
2023/04/22 07:54:24;;;;;;;;;39.00;34.00;;;;;15.68;36.16;99182.56;5017735;28;9725;-82
2023/04/22 07:56:53;;;;;;;;;41.25;34.50;;;;;14.82;37.68;99197.06;5014461;28;8860;-81
2023/04/22 07:59:22;;;;;;;;;39.50;35.00;;;;;15.08;37.12;99201.19;5018578;28;8858;-82
2023/04/22 08:01:51;;;;;;;;;43.00;35.75;;;;;15.26;37.48;99191.53;5032229;28;8858;-80
2023/04/22 08:04:21;;;;;;;;;38.00;34.50;;;;;15.86;36.70;99195.84;5032315;28;8908;-79
2023/04/22 08:06:51;;;;;;;;;40.75;34.00;;;;;14.80;37.76;99197.13;5079537;28;8863;-81
2023/04/22 08:09:21;;;;;;;;;23.00;22.75;;;;;14.35;38.70;99198.13;5101445;28;8862;-79
2023/04/22 08:11:53;;;;;;;;;28.50;27.50;;;;;14.12;38.83;99198.25;5081804;28;8852;-79
2023/04/22 08:14:22;;;;;;;;;37.00;33.25;;;;;14.08;39.64;99198.38;5089097;28;8883;-79
2023/04/22 08:16:51;;;;;;;;;43.25;36.00;;;;;14.06;39.77;99199.38;5072525;28;8848;-82
2023/04/22 08:19:20;;;;;;;;;38.50;33.75;;;;;14.38;39.40;99200.66;5088710;28;8972;-80
2023/04/22 08:21:50;;;;;;;;;36.50;34.00;;;;;15.14;38.21;99192.97;5072406;28;8870;-80
2023/04/22 08:24:19;;;;;;;;;36.75;33.25;;;;;15.63;37.63;99192.50;5106740;28;8900;-82
2023/04/22 08:26:50;;;;;;;;;39.75;35.50;;;;;16.14;36.47;99192.69;5072882;28;8860;-80
2023/04/22 08:29:19;;;;;;;;;38.50;34.75;;;;;16.26;36.55;99183.28;5089621;28;8848;-80
2023/04/22 08:31:48;;;;;;;;;36.00;33.00;;;;;15.11;38.01;99189.59;5088997;28;8879;-80
2023/04/22 08:34:17;;;;;;;;;43.75;35.50;;;;;15.20;38.01;99189.19;5088880;28;8958;-82
2023/04/22 08:36:46;;;;;;;;;42.00;36.00;;;;;15.34;37.17;99199.13;5089226;28;8843;-81
2023/04/22 08:39:14;;;;;;;;;35.75;32.50;;;;;15.60;35.80;99196.16;5072362;28;8844;-81
2023/04/22 08:41:45;;;;;;;;;36.25;32.75;;;;;15.58;35.42;99199.78;5072000;28;8840;-80
2023/04/22 08:44:17;;;;;;;;;37.75;32.75;;;;;15.33;36.29;99194.78;5050645;28;8879;-82
2023/04/22 08:46:47;;;;;;;;;36.75;33.00;;;;;15.44;35.86;99195.97;5047163;28;8846;-81
2023/04/22 08:49:16;;;;;;;;;35.75;33.25;;;;;15.08;36.35;99193.25;5046926;28;8890;-83
2023/04/22 08:51:46;;;;;;;;;41.50;35.75;;;;;15.60;36.21;99198.81;5031156;28;8870;-82
2023/04/22 08:54:15;;;;;;;;;39.25;33.25;;;;;16.10;36.01;99197.28;5007652;28;8850;-83
2023/04/22 08:56:45;;;;;;;;;39.00;33.00;;;;;16.45;35.42;99194.69;5024784;28;8972;-81
2023/04/22 08:59:16;;;;;;;;;30.75;29.50;;;;;16.27;33.42;99191.16;5011260;28;8990;-80
2023/04/22 09:01:49;;;;;;;;;33.50;30.25;;;;;16.76;32.74;99199.28;5027798;28;8886;-81
2023/04/22 09:04:19;;;;;;;;;29.25;29.25;;;;;16.84;32.29;99204.19;5027340;28;9731;-81
2023/04/22 09:06:48;;;;;;;;;39.75;34.50;;;;;16.82;33.49;99191.94;5010538;28;8944;-80
2023/04/22 09:09:19;;;;;;;;;35.75;32.00;;;;;16.62;33.14;99201.78;5006846;28;8999;-81
2023/04/22 09:11:48;;;;;;;;;37.50;33.25;;;;;15.87;35.31;99195.78;4993336;28;8870;-80
2023/04/22 09:14:19;;;;;;;;;39.25;34.50;;;;;16.37;35.00;99186.25;4997755;28;9506;-80
2023/04/22 09:16:49;;;;;;;;;34.00;31.75;;;;;16.73;35.17;99190.63;5049559;28;8880;-81
2023/04/22 09:19:18;;;;;;;;;40.75;35.50;;;;;16.87;34.86;99193.44;5029416;28;8861;-80
2023/04/22 09:21:48;;;;;;;;;33.50;30.75;;;;;17.01;33.16;99190.03;5012681;28;8884;-70
2023/04/22 09:24:20;;;;;;;;;34.00;32.00;;;;;17.50;32.88;99187.38;5062187;28;8959;-74
2023/04/22 09:26:49;;;;;;;;;37.25;32.75;;;;;17.77;32.67;99184.97;5047822;28;8856;-78
2023/04/22 09:29:19;;;;;;;;;36.25;33.50;;;;;18.11;32.19;99188.38;5066547;28;8880;-79
2023/04/22 09:31:49;;;;;;;;;36.50;33.50;;;;;17.81;32.88;99185.66;5047964;28;8867;-78
2023/04/22 09:34:18;;;;;;;;;38.50;33.00;;;;;18.21;32.05;99194.03;5089596;28;8848;-81
2023/04/22 09:36:50;;;;;;;;;31.50;30.25;;;;;18.48;30.72;99180.06;5086667;28;9647;-79
2023/04/22 09:39:19;;;;;;;;;35.50;33.00;;;;;17.85;31.28;99181.88;5066301;28;8950;-80
2023/04/22 09:41:55;;;;;;;;;35.50;32.75;;;;;18.40;31.05;99177.00;5081167;28;8852;-80
2023/04/22 09:44:27;;;;;;;;;35.50;33.00;;;;;18.60;31.62;99176.66;5082907;28;8870;-81
2023/04/22 09:46:56;;;;;;;;;38.75;33.75;;;;;18.52;32.44;99177.13;5075733;28;8862;-80
2023/04/22 09:49:27;;;;;;;;;38.00;34.50;;;;;18.57;32.58;99173.31;5082792;28;8869;-78
2023/04/22 09:51:57;;;;;;;;;32.00;31.50;;;;;17.78;32.39;99186.69;5082574;28;8835;-79
2023/04/22 09:54:26;;;;;;;;;38.25;33.75;;;;;16.54;35.02;99180.94;5085306;28;8856;-80
2023/04/22 09:56:55;;;;;;;;;34.00;31.50;;;;;16.81;34.51;99180.44;5093900;28;8864;-79
2023/04/22 09:59:27;;;;;;;;;34.50;30.75;;;;;17.36;33.74;99174.88;5074660;28;8868;-81
2023/04/22 10:01:59;;;;;;;;;34.50;31.25;;;;;17.83;33.25;99174.94;5089892;28;8867;-78
2023/04/22 10:04:28;;;;;;;;;28.75;26.50;;;;;17.88;30.77;99162.25;5088213;28;8856;-79
2023/04/22 10:06:58;;;;;;;;;26.75;25.50;;;;;18.31;30.77;99159.78;5087490;28;8953;-79
2023/04/22 10:09:27;;;;;;;;;32.25;25.75;;;;;18.55;29.48;99160.97;5087484;28;8851;-79
2023/04/22 10:11:57;;;;;;;;;24.75;24.75;;;;;18.80;29.90;99158.63;5086657;28;8859;-80
2023/04/22 10:14:28;;;;;;;;;26.80;25.00;;;;;19.05;28.86;99155.31;5103726;28;8921;-80
2023/04/22 10:16:59;;;;;;;;;22.60;20.40;;;;;19.18;27.88;99145.63;5083545;28;8948;-78
2023/04/22 10:19:28;;;;;;;;;20.00;20.00;;;;;18.85;29.00;99146.75;5068049;28;8852;-80
2023/04/22 10:22:01;;;;;;;;;35.50;30.75;;;;;18.87;29.25;99142.19;5067856;28;8908;-78
2023/04/22 10:24:36;;;;;;;;;30.75;25.75;;;;;18.93;29.32;99149.81;5083079;28;8867;-79
2023/04/22 10:27:07;;;;;;;;;24.00;23.50;;;;;19.23;28.66;99143.50;5015521;28;9536;-79
2023/04/22 10:29:39;;;;;;;;;23.75;23.00;;;;;19.48;28.01;99142.81;5084330;28;8852;-80
2023/04/22 10:32:24;;;;;;;;;28.25;26.50;;;;;18.87;27.94;99149.31;5086146;28;8904;-79
2023/04/22 10:35:26;;;;;;;;;32.25;30.25;;;;;17.93;29.78;99147.75;5071976;28;8861;-77
2023/04/22 10:37:55;;;;;;;;;23.75;21.00;;;;;18.53;28.38;99138.91;4941461;28;8938;-79
2023/04/22 10:40:24;;;;;;;;;15.60;15.40;;;;;18.87;27.12;99136.00;4990155;28;8962;-80
2023/04/22 10:42:54;;;;;;;;;17.20;15.00;;;;;19.28;25.72;99135.22;4955907;28;8858;-77
2023/04/22 10:45:26;;;;;;;;;22.40;20.60;;;;;19.55;26.58;99140.59;4991612;28;8878;-76
2023/04/22 10:47:55;;;;;;;;;28.00;24.00;;;;;18.74;27.62;99144.75;5007485;28;8964;-75
2023/04/22 10:50:26;;;;;;;;;27.75;24.75;;;;;18.38;28.07;99139.81;4975639;28;9029;-75
2023/04/22 10:52:57;;;;;;;;;24.40;22.20;;;;;19.00;27.80;99133.44;5007321;28;8927;-77
2023/04/22 10:55:46;;;;;;;;;21.00;20.40;;;;;19.43;27.64;99133.38;5007938;28;8896;-77
2023/04/22 10:58:19;;;;;;;;;20.80;20.00;;;;;19.72;26.40;99120.84;5007758;28;8985;-77
2023/04/22 11:00:58;;;;;;;;;17.40;16.00;;;;;20.19;24.44;99123.97;5005133;28;8886;-75
2023/04/22 11:03:29;;;;;;;;;13.00;9.20;;;;;20.61;21.79;99122.00;5021962;28;10179;-76
2023/04/22 11:06:15;;;;;;;;;12.60;11.80;;;;;21.08;22.21;99122.31;5007472;28;8909;-78
2023/04/22 11:08:46;;;;;;;;;9.40;9.40;;;;;21.17;23.44;99127.88;5007667;28;8903;-74
2023/04/22 11:11:17;;;;;;;;;15.00;15.00;;;;;21.33;22.72;99124.06;4988012;28;9681;-77
2023/04/22 11:13:50;;;;;;;;;18.60;17.80;;;;;21.39;22.60;99124.50;5010569;28;8941;-76
2023/04/22 11:16:23;;;;;;;;;21.20;19.00;;;;;21.51;22.39;99132.59;5090097;28;9009;-75
2023/04/22 11:18:52;;;;;;;;;16.20;16.20;;;;;21.56;22.47;99127.75;5071183;28;9021;-75
2023/04/22 11:21:22;;;;;;;;;21.00;19.80;;;;;21.10;22.72;99128.41;5090923;28;8966;-78
2023/04/22 11:23:52;;;;;;;;;19.40;18.80;;;;;21.00;23.50;99125.53;5038622;28;8940;-76
2023/04/22 11:26:34;;;;;;;;;18.20;17.60;;;;;20.99;23.90;99132.72;5087848;28;8851;-76
2023/04/22 11:29:03;;;;;;;;;16.60;16.60;;;;;21.04;23.57;99125.22;5054145;28;8890;-74
2023/04/22 11:31:35;;;;;;;;;20.60;20.60;;;;;21.44;23.97;99124.16;5087937;28;9034;-76
2023/04/22 11:34:04;;;;;;;;;13.80;12.00;;;;;21.63;22.87;99124.56;5077196;28;8880;-77
2023/04/22 11:36:33;;;;;;;;;14.40;13.80;;;;;21.70;21.58;99116.91;5088093;28;8856;-74
2023/04/22 11:39:10;;;;;;;;;14.20;14.20;;;;;21.63;21.50;99121.00;5093234;28;8851;-75
2023/04/22 11:41:41;;;;;;;;;10.60;10.20;;;;;21.56;20.63;99125.94;5096861;28;8839;-77